Airfield :
LOGIN :

Register | Disclaimer

   EN    FR    IT 

 










Legend :    VFR   Marginal VFR   IFR   Intensive IFR   Very Intensive IFR
Visi :
Ceiling :
>= 8 km
>= 3000ft
5 to 8 km
1000 to 3000 ft
1500m to 5 km
500 to 1000 ft
800 to 1500m
200 to 500 ft
< 800m
< 200 ft
Symbols :   Thunderstorms  Fog  Heavy snow  Heavy precipitations  Wind > 20 kt
SIGMETs :     Misc.  Thunderstorms  Icing  Turbulence  Mountain Waves  Volcanic Ashes






- Airport Elevation : 154 ft
- IATA code : SZZ


EPSC - Szczecin Goleniow

CURRENT METAR :
  • 282300Z 14007KT 8000 NSC 07/07 Q1009

EXPIRED METARs :
  • 282230Z 14007KT 8000 NSC 07/06 Q1009
  • 282200Z 14005KT 9000 NSC 07/07 Q1009
  • 282130Z 13005KT CAVOK 07/06 Q1010
  • 282100Z 13004KT CAVOK 07/06 Q1010

TAF TAF EPSC
Valid from the 29 at 00:00 until the 30 at 00:00 UTC


282330Z 2900/2924 16005KT 9999 FEW030
BECMG 2903/2905 -RA BKN014
PROB40
TEMPO 2903/2908 4000 RA BR BKN007
BECMG 2908/2911 26013KT SCT025
TEMPO 2908/2916 -SHRA SCT012 BKN020CB
PROB40
TEMPO 2911/2915 26015G27KT 4500 SHRA SCT012 BKN020CB



MET'MAP, your aeronautical weather chart ! - Copyright ORBIFLY December 2007 - Disclaimer

ORBIFLY MET'MAP TEAM :

Programming & Development : Alexandra Zaïnal
Concept & original design : Baudouin d'Aumeries
Assistance for programming : Marc-Olivier Méhu
Technical & hardware support : Manuel Goepfert

Contact : metmap@orbifly.com




SOURCES & CREDITS :

   NOAA